sensor_id;sensor_type;location;lat;lon;timestamp;P1;durP1;ratioP1;P2;durP2;ratioP2
77362;SDS011;66428;47.322;9.432;2024-03-08T00:00:22;14.55;;;6.35;;
77362;SDS011;66428;47.322;9.432;2024-03-08T00:02:50;16.17;;;7.47;;
77362;SDS011;66428;47.322;9.432;2024-03-08T00:05:20;14.95;;;7.25;;
77362;SDS011;66428;47.322;9.432;2024-03-08T00:07:48;14.20;;;7.47;;
77362;SDS011;66428;47.322;9.432;2024-03-08T00:10:17;13.95;;;6.43;;
77362;SDS011;66428;47.322;9.432;2024-03-08T00:12:49;16.23;;;7.60;;
77362;SDS011;66428;47.322;9.432;2024-03-08T00:15:18;11.68;;;6.95;;
77362;SDS011;66428;47.322;9.432;2024-03-08T00:17:46;12.65;;;6.43;;
77362;SDS011;66428;47.322;9.432;2024-03-08T00:20:14;16.55;;;7.20;;
77362;SDS011;66428;47.322;9.432;2024-03-08T00:22:48;16.13;;;7.20;;
77362;SDS011;66428;47.322;9.432;2024-03-08T00:25:19;13.43;;;6.70;;
77362;SDS011;66428;47.322;9.432;2024-03-08T00:27:47;16.85;;;6.57;;
77362;SDS011;66428;47.322;9.432;2024-03-08T00:30:16;15.75;;;5.88;;
77362;SDS011;66428;47.322;9.432;2024-03-08T00:32:46;10.90;;;5.88;;
77362;SDS011;66428;47.322;9.432;2024-03-08T00:35:15;12.45;;;6.28;;
77362;SDS011;66428;47.322;9.432;2024-03-08T00:37:46;10.15;;;5.95;;
77362;SDS011;66428;47.322;9.432;2024-03-08T00:40:14;10.02;;;5.93;;
77362;SDS011;66428;47.322;9.432;2024-03-08T00:42:43;9.38;;;5.07;;
77362;SDS011;66428;47.322;9.432;2024-03-08T00:45:11;14.00;;;5.63;;
77362;SDS011;66428;47.322;9.432;2024-03-08T00:47:41;9.55;;;4.68;;
77362;SDS011;66428;47.322;9.432;2024-03-08T00:50:11;9.77;;;5.20;;
77362;SDS011;66428;47.322;9.432;2024-03-08T00:52:39;12.05;;;6.15;;
77362;SDS011;66428;47.322;9.432;2024-03-08T00:55:07;8.88;;;4.35;;
77362;SDS011;66428;47.322;9.432;2024-03-08T00:57:37;8.10;;;4.88;;
77362;SDS011;66428;47.322;9.432;2024-03-08T01:00:07;8.50;;;4.63;;
77362;SDS011;66428;47.322;9.432;2024-03-08T01:02:38;9.35;;;5.10;;
77362;SDS011;66428;47.322;9.432;2024-03-08T01:05:06;7.97;;;4.18;;
77362;SDS011;66428;47.322;9.432;2024-03-08T01:07:35;11.00;;;5.20;;
77362;SDS011;66428;47.322;9.432;2024-03-08T01:10:05;7.78;;;4.82;;
77362;SDS011;66428;47.322;9.432;2024-03-08T01:12:38;10.27;;;4.45;;
77362;SDS011;66428;47.322;9.432;2024-03-08T01:15:08;8.05;;;4.03;;
77362;SDS011;66428;47.322;9.432;2024-03-08T01:17:40;5.63;;;3.53;;
77362;SDS011;66428;47.322;9.432;2024-03-08T01:20:08;4.07;;;2.90;;
77362;SDS011;66428;47.322;9.432;2024-03-08T01:22:38;5.47;;;2.65;;
77362;SDS011;66428;47.322;9.432;2024-03-08T01:25:06;7.28;;;3.47;;
77362;SDS011;66428;47.322;9.432;2024-03-08T01:27:37;7.03;;;3.80;;
77362;SDS011;66428;47.322;9.432;2024-03-08T01:30:08;7.47;;;3.42;;
77362;SDS011;66428;47.322;9.432;2024-03-08T01:32:37;7.60;;;3.72;;
77362;SDS011;66428;47.322;9.432;2024-03-08T01:35:05;7.55;;;3.90;;
77362;SDS011;66428;47.322;9.432;2024-03-08T01:37:36;8.25;;;3.13;;
77362;SDS011;66428;47.322;9.432;2024-03-08T01:40:06;5.32;;;3.25;;
77362;SDS011;66428;47.322;9.432;2024-03-08T01:42:37;6.28;;;3.28;;
77362;SDS011;66428;47.322;9.432;2024-03-08T01:45:11;5.43;;;3.20;;
77362;SDS011;66428;47.322;9.432;2024-03-08T01:47:41;5.93;;;2.80;;
77362;SDS011;66428;47.322;9.432;2024-03-08T01:50:12;5.32;;;2.60;;
77362;SDS011;66428;47.322;9.432;2024-03-08T01:52:47;5.88;;;3.05;;
77362;SDS011;66428;47.322;9.432;2024-03-08T01:55:46;6.07;;;3.10;;
77362;SDS011;66428;47.322;9.432;2024-03-08T01:58:58;7.15;;;3.88;;
77362;SDS011;66428;47.322;9.432;2024-03-08T02:05:14;6.80;;;3.53;;
77362;SDS011;66428;47.322;9.432;2024-03-08T02:08:06;5.43;;;2.55;;
77362;SDS011;66428;47.322;9.432;2024-03-08T02:11:23;5.63;;;3.45;;
77362;SDS011;66428;47.322;9.432;2024-03-08T02:13:55;5.22;;;2.35;;
77362;SDS011;66428;47.322;9.432;2024-03-08T02:17:01;6.28;;;2.70;;
77362;SDS011;66428;47.322;9.432;2024-03-08T02:20:19;4.53;;;2.55;;
77362;SDS011;66428;47.322;9.432;2024-03-08T03:23:12;3.35;;;1.77;;
77362;SDS011;66428;47.322;9.432;2024-03-08T03:26:06;2.78;;;1.35;;
77362;SDS011;66428;47.322;9.432;2024-03-08T03:29:09;2.67;;;1.55;;
77362;SDS011;66428;47.322;9.432;2024-03-08T03:32:09;2.60;;;1.80;;
77362;SDS011;66428;47.322;9.432;2024-03-08T03:35:09;7.63;;;1.90;;
77362;SDS011;66428;47.322;9.432;2024-03-08T03:54:33;3.20;;;1.98;;
77362;SDS011;66428;47.322;9.432;2024-03-08T03:57:19;5.90;;;2.00;;
77362;SDS011;66428;47.322;9.432;2024-03-08T04:00:09;3.17;;;1.48;;
77362;SDS011;66428;47.322;9.432;2024-03-08T04:03:05;3.13;;;1.95;;
77362;SDS011;66428;47.322;9.432;2024-03-08T04:06:09;2.92;;;1.63;;
77362;SDS011;66428;47.322;9.432;2024-03-08T04:08:54;3.97;;;1.85;;
77362;SDS011;66428;47.322;9.432;2024-03-08T04:21:25;2.60;;;1.33;;
77362;SDS011;66428;47.322;9.432;2024-03-08T04:24:22;2.65;;;1.25;;
77362;SDS011;66428;47.322;9.432;2024-03-08T04:27:09;1.60;;;1.42;;
77362;SDS011;66428;47.322;9.432;2024-03-08T04:30:13;2.97;;;1.52;;
77362;SDS011;66428;47.322;9.432;2024-03-08T04:32:45;1.35;;;1.10;;
77362;SDS011;66428;47.322;9.432;2024-03-08T04:35:38;3.28;;;1.63;;
77362;SDS011;66428;47.322;9.432;2024-03-08T05:01:44;3.70;;;1.95;;
77362;SDS011;66428;47.322;9.432;2024-03-08T05:04:37;4.63;;;2.03;;
77362;SDS011;66428;47.322;9.432;2024-03-08T05:07:23;3.85;;;1.70;;
77362;SDS011;66428;47.322;9.432;2024-03-08T05:10:07;4.95;;;1.90;;
77362;SDS011;66428;47.322;9.432;2024-03-08T05:13:11;3.38;;;2.00;;
77362;SDS011;66428;47.322;9.432;2024-03-08T05:16:04;4.75;;;2.00;;
77362;SDS011;66428;47.322;9.432;2024-03-08T05:31:14;4.00;;;1.70;;
77362;SDS011;66428;47.322;9.432;2024-03-08T05:34:15;2.67;;;1.63;;
77362;SDS011;66428;47.322;9.432;2024-03-08T05:37:06;3.85;;;1.88;;
77362;SDS011;66428;47.322;9.432;2024-03-08T05:39:55;4.93;;;1.83;;
77362;SDS011;66428;47.322;9.432;2024-03-08T05:45:42;3.00;;;1.70;;
77362;SDS011;66428;47.322;9.432;2024-03-08T05:48:31;3.33;;;1.60;;
77362;SDS011;66428;47.322;9.432;2024-03-08T05:51:00;3.28;;;2.15;;
77362;SDS011;66428;47.322;9.432;2024-03-08T05:53:45;7.57;;;2.63;;
77362;SDS011;66428;47.322;9.432;2024-03-08T05:56:29;7.38;;;2.70;;
77362;SDS011;66428;47.322;9.432;2024-03-08T05:58:59;11.05;;;4.10;;
77362;SDS011;66428;47.322;9.432;2024-03-08T06:01:27;13.32;;;4.78;;
77362;SDS011;66428;47.322;9.432;2024-03-08T06:03:57;10.90;;;4.03;;
77362;SDS011;66428;47.322;9.432;2024-03-08T06:06:27;11.43;;;4.82;;
77362;SDS011;66428;47.322;9.432;2024-03-08T06:08:55;17.38;;;6.35;;
77362;SDS011;66428;47.322;9.432;2024-03-08T06:11:25;20.42;;;6.65;;
77362;SDS011;66428;47.322;9.432;2024-03-08T06:13:55;15.85;;;5.90;;
77362;SDS011;66428;47.322;9.432;2024-03-08T06:16:29;16.52;;;6.05;;
77362;SDS011;66428;47.322;9.432;2024-03-08T06:18:58;18.33;;;6.85;;
77362;SDS011;66428;47.322;9.432;2024-03-08T06:21:29;15.95;;;6.20;;
77362;SDS011;66428;47.322;9.432;2024-03-08T06:23:59;17.42;;;6.75;;
77362;SDS011;66428;47.322;9.432;2024-03-08T06:26:30;14.43;;;6.10;;
77362;SDS011;66428;47.322;9.432;2024-03-08T06:29:00;14.40;;;6.75;;
77362;SDS011;66428;47.322;9.432;2024-03-08T06:31:27;25.83;;;7.80;;
77362;SDS011;66428;47.322;9.432;2024-03-08T06:33:59;14.63;;;6.90;;
77362;SDS011;66428;47.322;9.432;2024-03-08T06:36:27;22.15;;;8.00;;
77362;SDS011;66428;47.322;9.432;2024-03-08T06:38:57;19.90;;;8.35;;
77362;SDS011;66428;47.322;9.432;2024-03-08T06:41:27;18.02;;;6.88;;
77362;SDS011;66428;47.322;9.432;2024-03-08T06:43:55;19.58;;;8.00;;
77362;SDS011;66428;47.322;9.432;2024-03-08T06:46:24;21.15;;;8.63;;
77362;SDS011;66428;47.322;9.432;2024-03-08T06:48:52;17.02;;;6.68;;
77362;SDS011;66428;47.322;9.432;2024-03-08T06:51:23;17.80;;;7.07;;
77362;SDS011;66428;47.322;9.432;2024-03-08T06:53:51;21.05;;;9.05;;
77362;SDS011;66428;47.322;9.432;2024-03-08T06:56:19;19.10;;;8.07;;
77362;SDS011;66428;47.322;9.432;2024-03-08T06:58:48;23.10;;;7.07;;
77362;SDS011;66428;47.322;9.432;2024-03-08T07:01:15;17.58;;;7.45;;
77362;SDS011;66428;47.322;9.432;2024-03-08T07:03:44;25.17;;;7.85;;
77362;SDS011;66428;47.322;9.432;2024-03-08T07:06:11;18.00;;;7.22;;
77362;SDS011;66428;47.322;9.432;2024-03-08T07:08:42;29.17;;;8.00;;
77362;SDS011;66428;47.322;9.432;2024-03-08T07:11:12;21.58;;;7.65;;
77362;SDS011;66428;47.322;9.432;2024-03-08T07:13:44;20.15;;;8.48;;
77362;SDS011;66428;47.322;9.432;2024-03-08T07:16:12;27.35;;;8.82;;
77362;SDS011;66428;47.322;9.432;2024-03-08T07:18:39;22.67;;;7.50;;
77362;SDS011;66428;47.322;9.432;2024-03-08T07:21:10;19.40;;;7.57;;
77362;SDS011;66428;47.322;9.432;2024-03-08T07:23:38;11.23;;;6.03;;
77362;SDS011;66428;47.322;9.432;2024-03-08T07:26:31;14.60;;;6.03;;
77362;SDS011;66428;47.322;9.432;2024-03-08T07:28:58;19.30;;;6.32;;
77362;SDS011;66428;47.322;9.432;2024-03-08T07:31:27;18.20;;;6.28;;
77362;SDS011;66428;47.322;9.432;2024-03-08T07:34:11;12.57;;;7.00;;
77362;SDS011;66428;47.322;9.432;2024-03-08T07:36:39;13.52;;;6.25;;
77362;SDS011;66428;47.322;9.432;2024-03-08T07:39:09;18.30;;;5.95;;
77362;SDS011;66428;47.322;9.432;2024-03-08T07:41:42;14.27;;;6.57;;
77362;SDS011;66428;47.322;9.432;2024-03-08T07:44:10;14.73;;;6.57;;
77362;SDS011;66428;47.322;9.432;2024-03-08T07:46:40;11.05;;;6.22;;
77362;SDS011;66428;47.322;9.432;2024-03-08T07:49:07;21.70;;;6.32;;
77362;SDS011;66428;47.322;9.432;2024-03-08T07:51:39;16.90;;;6.60;;
77362;SDS011;66428;47.322;9.432;2024-03-08T07:54:08;14.10;;;6.43;;
77362;SDS011;66428;47.322;9.432;2024-03-08T07:56:36;11.38;;;6.82;;
77362;SDS011;66428;47.322;9.432;2024-03-08T07:59:05;15.05;;;7.18;;
77362;SDS011;66428;47.322;9.432;2024-03-08T08:01:34;20.42;;;7.35;;
77362;SDS011;66428;47.322;9.432;2024-03-08T08:04:02;19.35;;;7.28;;
77362;SDS011;66428;47.322;9.432;2024-03-08T08:06:29;17.17;;;8.32;;
77362;SDS011;66428;47.322;9.432;2024-03-08T08:08:59;18.88;;;7.80;;
77362;SDS011;66428;47.322;9.432;2024-03-08T08:11:28;15.73;;;7.57;;
77362;SDS011;66428;47.322;9.432;2024-03-08T08:13:56;18.75;;;8.70;;
77362;SDS011;66428;47.322;9.432;2024-03-08T08:16:25;17.70;;;7.68;;
77362;SDS011;66428;47.322;9.432;2024-03-08T08:18:53;15.30;;;7.07;;
77362;SDS011;66428;47.322;9.432;2024-03-08T08:21:23;18.90;;;7.80;;
77362;SDS011;66428;47.322;9.432;2024-03-08T08:23:52;20.13;;;8.13;;
77362;SDS011;66428;47.322;9.432;2024-03-08T08:26:21;20.98;;;7.85;;
77362;SDS011;66428;47.322;9.432;2024-03-08T08:28:49;12.10;;;6.97;;
77362;SDS011;66428;47.322;9.432;2024-03-08T08:31:16;19.35;;;7.88;;
77362;SDS011;66428;47.322;9.432;2024-03-08T08:33:47;17.77;;;7.10;;
77362;SDS011;66428;47.322;9.432;2024-03-08T08:36:17;18.08;;;8.30;;
77362;SDS011;66428;47.322;9.432;2024-03-08T08:38:45;22.60;;;8.65;;
77362;SDS011;66428;47.322;9.432;2024-03-08T08:41:13;21.75;;;9.43;;
77362;SDS011;66428;47.322;9.432;2024-03-08T08:43:41;17.13;;;7.93;;
77362;SDS011;66428;47.322;9.432;2024-03-08T08:46:24;19.58;;;7.95;;
77362;SDS011;66428;47.322;9.432;2024-03-08T08:48:56;23.17;;;8.25;;
77362;SDS011;66428;47.322;9.432;2024-03-08T08:51:25;16.90;;;8.98;;
77362;SDS011;66428;47.322;9.432;2024-03-08T08:53:54;17.17;;;7.63;;
77362;SDS011;66428;47.322;9.432;2024-03-08T08:56:22;19.55;;;8.45;;
77362;SDS011;66428;47.322;9.432;2024-03-08T08:58:50;18.75;;;7.72;;
77362;SDS011;66428;47.322;9.432;2024-03-08T09:01:19;19.00;;;8.23;;
77362;SDS011;66428;47.322;9.432;2024-03-08T09:03:47;19.80;;;8.18;;
77362;SDS011;66428;47.322;9.432;2024-03-08T09:06:18;18.10;;;8.27;;
77362;SDS011;66428;47.322;9.432;2024-03-08T09:08:46;21.25;;;9.88;;
77362;SDS011;66428;47.322;9.432;2024-03-08T09:11:14;18.92;;;8.70;;
77362;SDS011;66428;47.322;9.432;2024-03-08T09:13:44;17.30;;;8.65;;
77362;SDS011;66428;47.322;9.432;2024-03-08T09:16:12;15.10;;;8.50;;
77362;SDS011;66428;47.322;9.432;2024-03-08T09:18:42;24.63;;;9.13;;
77362;SDS011;66428;47.322;9.432;2024-03-08T09:21:10;21.08;;;8.75;;
77362;SDS011;66428;47.322;9.432;2024-03-08T09:23:41;20.20;;;8.73;;
77362;SDS011;66428;47.322;9.432;2024-03-08T09:26:11;17.25;;;8.48;;
77362;SDS011;66428;47.322;9.432;2024-03-08T09:28:50;17.35;;;7.80;;
77362;SDS011;66428;47.322;9.432;2024-03-08T09:31:18;17.08;;;8.50;;
77362;SDS011;66428;47.322;9.432;2024-03-08T09:33:46;16.90;;;8.90;;
77362;SDS011;66428;47.322;9.432;2024-03-08T09:36:14;16.98;;;7.82;;
77362;SDS011;66428;47.322;9.432;2024-03-08T09:39:07;15.95;;;8.38;;
77362;SDS011;66428;47.322;9.432;2024-03-08T09:41:35;19.27;;;9.07;;
77362;SDS011;66428;47.322;9.432;2024-03-08T09:44:03;18.48;;;9.27;;
77362;SDS011;66428;47.322;9.432;2024-03-08T09:46:31;16.40;;;7.88;;
77362;SDS011;66428;47.322;9.432;2024-03-08T09:48:59;19.02;;;8.43;;
77362;SDS011;66428;47.322;9.432;2024-03-08T09:51:28;20.48;;;9.35;;
77362;SDS011;66428;47.322;9.432;2024-03-08T09:53:59;17.73;;;8.10;;
77362;SDS011;66428;47.322;9.432;2024-03-08T09:56:37;20.35;;;9.60;;
77362;SDS011;66428;47.322;9.432;2024-03-08T09:59:08;21.65;;;9.85;;
77362;SDS011;66428;47.322;9.432;2024-03-08T10:02:11;19.13;;;9.05;;
77362;SDS011;66428;47.322;9.432;2024-03-08T10:07:12;20.00;;;9.25;;
77362;SDS011;66428;47.322;9.432;2024-03-08T10:09:40;17.02;;;9.27;;
77362;SDS011;66428;47.322;9.432;2024-03-08T10:12:09;24.70;;;10.00;;
77362;SDS011;66428;47.322;9.432;2024-03-08T10:14:40;16.58;;;8.82;;
77362;SDS011;66428;47.322;9.432;2024-03-08T10:17:11;16.02;;;9.02;;
77362;SDS011;66428;47.322;9.432;2024-03-08T10:19:38;18.45;;;8.23;;
77362;SDS011;66428;47.322;9.432;2024-03-08T10:22:12;17.95;;;9.10;;
77362;SDS011;66428;47.322;9.432;2024-03-08T10:27:13;17.60;;;8.57;;
77362;SDS011;66428;47.322;9.432;2024-03-08T10:29:42;21.52;;;8.55;;
77362;SDS011;66428;47.322;9.432;2024-03-08T10:32:11;18.42;;;10.15;;
77362;SDS011;66428;47.322;9.432;2024-03-08T10:34:39;25.13;;;10.23;;
77362;SDS011;66428;47.322;9.432;2024-03-08T10:37:09;19.05;;;10.07;;
77362;SDS011;66428;47.322;9.432;2024-03-08T10:39:44;20.85;;;10.55;;
77362;SDS011;66428;47.322;9.432;2024-03-08T10:42:16;19.88;;;9.32;;
77362;SDS011;66428;47.322;9.432;2024-03-08T10:44:48;21.08;;;9.60;;
77362;SDS011;66428;47.322;9.432;2024-03-08T10:47:27;20.85;;;9.98;;
77362;SDS011;66428;47.322;9.432;2024-03-08T10:49:59;25.50;;;11.77;;
77362;SDS011;66428;47.322;9.432;2024-03-08T10:52:32;22.25;;;10.95;;
77362;SDS011;66428;47.322;9.432;2024-03-08T10:55:03;19.60;;;9.35;;
77362;SDS011;66428;47.322;9.432;2024-03-08T10:57:40;20.70;;;9.57;;
77362;SDS011;66428;47.322;9.432;2024-03-08T11:00:11;23.73;;;9.70;;
77362;SDS011;66428;47.322;9.432;2024-03-08T11:02:43;20.23;;;9.95;;
77362;SDS011;66428;47.322;9.432;2024-03-08T11:05:15;21.35;;;11.90;;
77362;SDS011;66428;47.322;9.432;2024-03-08T11:08:00;19.38;;;9.45;;
77362;SDS011;66428;47.322;9.432;2024-03-08T11:10:31;22.92;;;9.73;;
77362;SDS011;66428;47.322;9.432;2024-03-08T11:13:03;26.30;;;11.18;;
77362;SDS011;66428;47.322;9.432;2024-03-08T11:15:31;21.83;;;10.10;;
77362;SDS011;66428;47.322;9.432;2024-03-08T11:17:59;20.95;;;9.73;;
77362;SDS011;66428;47.322;9.432;2024-03-08T11:20:28;24.63;;;12.35;;
77362;SDS011;66428;47.322;9.432;2024-03-08T11:23:00;25.33;;;12.00;;
77362;SDS011;66428;47.322;9.432;2024-03-08T11:25:32;24.70;;;10.80;;
77362;SDS011;66428;47.322;9.432;2024-03-08T11:28:13;22.35;;;10.63;;
77362;SDS011;66428;47.322;9.432;2024-03-08T11:31:22;23.73;;;10.65;;
77362;SDS011;66428;47.322;9.432;2024-03-08T11:33:36;20.90;;;10.30;;
77362;SDS011;66428;47.322;9.432;2024-03-08T11:36:11;19.42;;;10.05;;
77362;SDS011;66428;47.322;9.432;2024-03-08T11:38:46;22.52;;;11.38;;
77362;SDS011;66428;47.322;9.432;2024-03-08T11:41:16;21.33;;;9.80;;
77362;SDS011;66428;47.322;9.432;2024-03-08T11:44:01;22.33;;;10.18;;
77362;SDS011;66428;47.322;9.432;2024-03-08T11:46:32;17.15;;;9.10;;
77362;SDS011;66428;47.322;9.432;2024-03-08T11:49:16;19.58;;;9.95;;
77362;SDS011;66428;47.322;9.432;2024-03-08T11:51:44;22.02;;;9.82;;
77362;SDS011;66428;47.322;9.432;2024-03-08T11:54:14;19.08;;;9.43;;
77362;SDS011;66428;47.322;9.432;2024-03-08T11:56:42;21.58;;;10.50;;
77362;SDS011;66428;47.322;9.432;2024-03-08T11:59:12;21.35;;;10.10;;
77362;SDS011;66428;47.322;9.432;2024-03-08T12:01:41;22.60;;;10.90;;
77362;SDS011;66428;47.322;9.432;2024-03-08T12:04:11;21.83;;;10.20;;
77362;SDS011;66428;47.322;9.432;2024-03-08T12:06:40;21.02;;;10.23;;
77362;SDS011;66428;47.322;9.432;2024-03-08T12:09:08;19.52;;;9.63;;
77362;SDS011;66428;47.322;9.432;2024-03-08T12:11:36;17.70;;;9.68;;
77362;SDS011;66428;47.322;9.432;2024-03-08T12:14:04;17.75;;;9.57;;
77362;SDS011;66428;47.322;9.432;2024-03-08T12:16:34;19.67;;;10.35;;
77362;SDS011;66428;47.322;9.432;2024-03-08T12:19:03;22.35;;;11.20;;
77362;SDS011;66428;47.322;9.432;2024-03-08T12:21:34;20.15;;;10.43;;
77362;SDS011;66428;47.322;9.432;2024-03-08T12:24:05;18.73;;;9.90;;
77362;SDS011;66428;47.322;9.432;2024-03-08T12:26:35;20.38;;;9.60;;
77362;SDS011;66428;47.322;9.432;2024-03-08T12:29:16;21.50;;;10.80;;
77362;SDS011;66428;47.322;9.432;2024-03-08T12:31:48;19.55;;;8.57;;
77362;SDS011;66428;47.322;9.432;2024-03-08T12:34:16;20.67;;;10.38;;
77362;SDS011;66428;47.322;9.432;2024-03-08T12:36:46;21.55;;;11.10;;
77362;SDS011;66428;47.322;9.432;2024-03-08T12:39:18;19.80;;;8.63;;
77362;SDS011;66428;47.322;9.432;2024-03-08T12:41:51;22.60;;;10.52;;
77362;SDS011;66428;47.322;9.432;2024-03-08T12:44:19;20.98;;;9.73;;
77362;SDS011;66428;47.322;9.432;2024-03-08T12:46:49;22.48;;;11.38;;
77362;SDS011;66428;47.322;9.432;2024-03-08T12:49:21;20.60;;;10.48;;
77362;SDS011;66428;47.322;9.432;2024-03-08T12:51:50;22.52;;;11.13;;
77362;SDS011;66428;47.322;9.432;2024-03-08T12:54:21;21.95;;;10.30;;
77362;SDS011;66428;47.322;9.432;2024-03-08T12:56:51;21.30;;;10.95;;
77362;SDS011;66428;47.322;9.432;2024-03-08T12:59:21;20.88;;;10.75;;
77362;SDS011;66428;47.322;9.432;2024-03-08T13:01:51;21.60;;;9.50;;
77362;SDS011;66428;47.322;9.432;2024-03-08T13:04:23;23.75;;;11.02;;
77362;SDS011;66428;47.322;9.432;2024-03-08T13:06:52;22.17;;;11.00;;
77362;SDS011;66428;47.322;9.432;2024-03-08T13:09:21;21.33;;;11.82;;
77362;SDS011;66428;47.322;9.432;2024-03-08T13:11:50;23.02;;;11.18;;
77362;SDS011;66428;47.322;9.432;2024-03-08T13:14:19;21.33;;;10.93;;
77362;SDS011;66428;47.322;9.432;2024-03-08T13:16:47;21.23;;;10.32;;
77362;SDS011;66428;47.322;9.432;2024-03-08T13:19:16;20.83;;;9.73;;
77362;SDS011;66428;47.322;9.432;2024-03-08T13:21:48;21.42;;;10.77;;
77362;SDS011;66428;47.322;9.432;2024-03-08T13:24:16;23.52;;;11.18;;
77362;SDS011;66428;47.322;9.432;2024-03-08T13:26:45;24.58;;;10.63;;
77362;SDS011;66428;47.322;9.432;2024-03-08T13:29:13;22.65;;;10.70;;
77362;SDS011;66428;47.322;9.432;2024-03-08T13:31:41;25.08;;;11.60;;
77362;SDS011;66428;47.322;9.432;2024-03-08T13:34:11;27.23;;;11.60;;
77362;SDS011;66428;47.322;9.432;2024-03-08T13:36:41;22.70;;;10.63;;
77362;SDS011;66428;47.322;9.432;2024-03-08T13:39:11;23.10;;;11.93;;
77362;SDS011;66428;47.322;9.432;2024-03-08T13:41:45;17.80;;;9.90;;
77362;SDS011;66428;47.322;9.432;2024-03-08T13:44:13;23.40;;;11.30;;
77362;SDS011;66428;47.322;9.432;2024-03-08T13:46:40;27.63;;;11.40;;
77362;SDS011;66428;47.322;9.432;2024-03-08T13:49:08;25.00;;;11.55;;
77362;SDS011;66428;47.322;9.432;2024-03-08T13:51:37;24.38;;;10.60;;
77362;SDS011;66428;47.322;9.432;2024-03-08T13:54:09;22.67;;;11.57;;
77362;SDS011;66428;47.322;9.432;2024-03-08T13:56:37;22.08;;;10.77;;
77362;SDS011;66428;47.322;9.432;2024-03-08T13:59:05;20.60;;;10.18;;
77362;SDS011;66428;47.322;9.432;2024-03-08T14:01:35;24.08;;;10.90;;
77362;SDS011;66428;47.322;9.432;2024-03-08T14:04:03;22.85;;;10.35;;
77362;SDS011;66428;47.322;9.432;2024-03-08T14:06:33;24.65;;;10.02;;
77362;SDS011;66428;47.322;9.432;2024-03-08T14:09:02;21.83;;;10.10;;
77362;SDS011;66428;47.322;9.432;2024-03-08T14:11:31;19.95;;;10.65;;
77362;SDS011;66428;47.322;9.432;2024-03-08T14:13:59;18.00;;;10.45;;
77362;SDS011;66428;47.322;9.432;2024-03-08T14:16:27;20.02;;;10.32;;
77362;SDS011;66428;47.322;9.432;2024-03-08T14:18:55;23.40;;;10.30;;
77362;SDS011;66428;47.322;9.432;2024-03-08T14:21:23;21.13;;;11.00;;
77362;SDS011;66428;47.322;9.432;2024-03-08T14:23:50;22.10;;;10.88;;
77362;SDS011;66428;47.322;9.432;2024-03-08T14:26:19;24.77;;;10.98;;
77362;SDS011;66428;47.322;9.432;2024-03-08T14:28:49;20.70;;;10.20;;
77362;SDS011;66428;47.322;9.432;2024-03-08T14:31:18;21.63;;;10.32;;
77362;SDS011;66428;47.322;9.432;2024-03-08T14:33:46;22.92;;;11.18;;
77362;SDS011;66428;47.322;9.432;2024-03-08T14:36:15;20.38;;;10.50;;
77362;SDS011;66428;47.322;9.432;2024-03-08T14:38:44;23.95;;;11.80;;
77362;SDS011;66428;47.322;9.432;2024-03-08T14:41:13;20.88;;;11.25;;
77362;SDS011;66428;47.322;9.432;2024-03-08T14:43:42;21.58;;;10.48;;
77362;SDS011;66428;47.322;9.432;2024-03-08T14:46:12;22.38;;;11.25;;
77362;SDS011;66428;47.322;9.432;2024-03-08T14:48:45;21.30;;;11.05;;
77362;SDS011;66428;47.322;9.432;2024-03-08T14:51:17;22.73;;;11.00;;
77362;SDS011;66428;47.322;9.432;2024-03-08T14:53:47;20.38;;;10.95;;
77362;SDS011;66428;47.322;9.432;2024-03-08T14:56:16;24.90;;;10.88;;
77362;SDS011;66428;47.322;9.432;2024-03-08T14:58:43;17.90;;;10.45;;
77362;SDS011;66428;47.322;9.432;2024-03-08T15:01:17;24.02;;;10.95;;
77362;SDS011;66428;47.322;9.432;2024-03-08T15:06:18;23.98;;;9.93;;
77362;SDS011;66428;47.322;9.432;2024-03-08T15:08:50;23.00;;;10.82;;
77362;SDS011;66428;47.322;9.432;2024-03-08T15:11:21;21.15;;;11.85;;
77362;SDS011;66428;47.322;9.432;2024-03-08T15:13:51;19.65;;;10.52;;
77362;SDS011;66428;47.322;9.432;2024-03-08T15:16:23;22.63;;;11.20;;
77362;SDS011;66428;47.322;9.432;2024-03-08T15:18:52;18.67;;;10.80;;
77362;SDS011;66428;47.322;9.432;2024-03-08T15:21:20;25.60;;;10.95;;
77362;SDS011;66428;47.322;9.432;2024-03-08T15:23:52;21.92;;;11.35;;
77362;SDS011;66428;47.322;9.432;2024-03-08T15:26:21;27.83;;;12.25;;
77362;SDS011;66428;47.322;9.432;2024-03-08T15:28:48;22.90;;;12.38;;
77362;SDS011;66428;47.322;9.432;2024-03-08T15:31:21;22.33;;;11.38;;
77362;SDS011;66428;47.322;9.432;2024-03-08T15:33:54;25.77;;;12.18;;
77362;SDS011;66428;47.322;9.432;2024-03-08T15:36:27;22.65;;;12.60;;
77362;SDS011;66428;47.322;9.432;2024-03-08T15:38:59;25.70;;;11.63;;
77362;SDS011;66428;47.322;9.432;2024-03-08T15:41:27;20.52;;;10.82;;
77362;SDS011;66428;47.322;9.432;2024-03-08T15:43:56;23.02;;;10.93;;
77362;SDS011;66428;47.322;9.432;2024-03-08T15:46:26;23.80;;;12.57;;
77362;SDS011;66428;47.322;9.432;2024-03-08T15:48:56;19.92;;;11.73;;
77362;SDS011;66428;47.322;9.432;2024-03-08T15:51:23;25.13;;;12.20;;
77362;SDS011;66428;47.322;9.432;2024-03-08T15:53:51;23.90;;;12.75;;
77362;SDS011;66428;47.322;9.432;2024-03-08T15:56:21;21.92;;;11.95;;
77362;SDS011;66428;47.322;9.432;2024-03-08T15:58:50;21.17;;;11.60;;
77362;SDS011;66428;47.322;9.432;2024-03-08T16:01:20;24.83;;;12.52;;
77362;SDS011;66428;47.322;9.432;2024-03-08T16:03:49;26.95;;;12.32;;
77362;SDS011;66428;47.322;9.432;2024-03-08T16:06:18;23.60;;;11.35;;
77362;SDS011;66428;47.322;9.432;2024-03-08T16:08:50;22.85;;;11.07;;
77362;SDS011;66428;47.322;9.432;2024-03-08T16:11:18;24.23;;;12.40;;
77362;SDS011;66428;47.322;9.432;2024-03-08T16:13:48;22.35;;;11.38;;
77362;SDS011;66428;47.322;9.432;2024-03-08T16:16:16;25.83;;;12.95;;
77362;SDS011;66428;47.322;9.432;2024-03-08T16:18:46;26.65;;;12.45;;
77362;SDS011;66428;47.322;9.432;2024-03-08T16:21:14;24.40;;;12.95;;
77362;SDS011;66428;47.322;9.432;2024-03-08T16:23:46;25.85;;;13.82;;
77362;SDS011;66428;47.322;9.432;2024-03-08T16:26:15;26.55;;;13.80;;
77362;SDS011;66428;47.322;9.432;2024-03-08T16:28:46;29.00;;;13.95;;
77362;SDS011;66428;47.322;9.432;2024-03-08T16:31:16;22.55;;;11.10;;
77362;SDS011;66428;47.322;9.432;2024-03-08T16:33:47;24.48;;;11.95;;
77362;SDS011;66428;47.322;9.432;2024-03-08T16:36:17;24.88;;;11.15;;
77362;SDS011;66428;47.322;9.432;2024-03-08T16:38:46;25.50;;;11.75;;
77362;SDS011;66428;47.322;9.432;2024-03-08T16:41:17;24.00;;;13.27;;
77362;SDS011;66428;47.322;9.432;2024-03-08T16:43:48;27.38;;;13.05;;
77362;SDS011;66428;47.322;9.432;2024-03-08T16:46:16;24.73;;;12.00;;
77362;SDS011;66428;47.322;9.432;2024-03-08T16:48:43;22.38;;;11.93;;
77362;SDS011;66428;47.322;9.432;2024-03-08T16:51:11;21.25;;;11.70;;
77362;SDS011;66428;47.322;9.432;2024-03-08T16:53:40;18.33;;;10.55;;
77362;SDS011;66428;47.322;9.432;2024-03-08T16:56:10;24.92;;;10.70;;
77362;SDS011;66428;47.322;9.432;2024-03-08T16:58:40;21.73;;;11.13;;
77362;SDS011;66428;47.322;9.432;2024-03-08T17:01:11;25.00;;;11.18;;
77362;SDS011;66428;47.322;9.432;2024-03-08T17:03:39;46.15;;;22.48;;
77362;SDS011;66428;47.322;9.432;2024-03-08T17:06:21;24.52;;;12.75;;
77362;SDS011;66428;47.322;9.432;2024-03-08T17:08:50;27.80;;;14.80;;
77362;SDS011;66428;47.322;9.432;2024-03-08T17:11:20;26.80;;;16.25;;
77362;SDS011;66428;47.322;9.432;2024-03-08T17:13:49;24.02;;;12.88;;
77362;SDS011;66428;47.322;9.432;2024-03-08T17:16:19;23.88;;;13.00;;
77362;SDS011;66428;47.322;9.432;2024-03-08T17:18:51;22.40;;;12.40;;